createdAt,value
2023-05-23T00:01:46.766Z,15.12
2023-05-23T00:04:18.740Z,15.13
2023-05-23T00:06:50.645Z,15.10
2023-05-23T00:09:19.258Z,15.22
2023-05-23T00:11:47.593Z,15.25
2023-05-23T00:14:16.363Z,15.27
2023-05-23T00:16:46.393Z,15.31
2023-05-23T00:19:16.159Z,15.33
2023-05-23T00:21:45.720Z,15.38
2023-05-23T00:24:18.797Z,15.32
2023-05-23T00:26:47.470Z,15.33
2023-05-23T00:29:16.843Z,15.20
2023-05-23T00:31:46.681Z,15.17
2023-05-23T00:34:15.593Z,15.14
2023-05-23T00:36:44.057Z,15.18
2023-05-23T00:39:19.043Z,15.15
2023-05-23T00:41:51.786Z,15.14
2023-05-23T00:44:22.105Z,15.16
2023-05-23T00:46:53.066Z,15.12
2023-05-23T00:49:21.408Z,15.13
2023-05-23T00:51:50.187Z,15.09
2023-05-23T00:54:32.223Z,15.13
2023-05-23T00:57:16.263Z,15.09
2023-05-23T00:59:46.850Z,15.11
2023-05-23T01:02:15.141Z,15.15
2023-05-23T01:04:44.177Z,15.15
2023-05-23T01:07:12.403Z,15.13
2023-05-23T01:09:40.772Z,15.20
2023-05-23T01:12:22.026Z,15.17
2023-05-23T01:15:06.701Z,15.14
2023-05-23T01:17:41.859Z,15.13
2023-05-23T01:20:12.794Z,15.10
2023-05-23T01:22:53.799Z,15.15
2023-05-23T01:25:29.243Z,15.15
2023-05-23T01:28:01.935Z,15.14
2023-05-23T01:30:46.827Z,15.12
2023-05-23T01:33:16.525Z,15.20
2023-05-23T01:35:45.386Z,15.21
2023-05-23T01:38:13.689Z,15.20
2023-05-23T01:40:42.161Z,15.20
2023-05-23T01:43:11.858Z,15.18
2023-05-23T01:45:40.806Z,15.19
2023-05-23T01:48:11.684Z,15.19
2023-05-23T01:50:40.826Z,15.24
2023-05-23T01:53:10.326Z,15.23
2023-05-23T01:55:39.782Z,15.26
2023-05-23T01:58:09.546Z,15.29
2023-05-23T02:00:39.431Z,15.22
2023-05-23T02:03:16.076Z,15.20
2023-05-23T02:05:44.595Z,15.18
2023-05-23T02:08:13.182Z,15.23
2023-05-23T02:10:41.443Z,15.16
2023-05-23T02:13:10.018Z,15.16
2023-05-23T02:15:39.793Z,15.20
2023-05-23T02:18:08.505Z,15.14
2023-05-23T02:20:36.850Z,15.18
2023-05-23T02:23:05.350Z,15.20
2023-05-23T02:25:33.600Z,15.16
2023-05-23T02:28:02.086Z,15.21
2023-05-23T02:30:30.650Z,15.16
2023-05-23T02:33:00.268Z,15.20
2023-05-23T02:35:58.639Z,15.23
2023-05-23T02:38:27.807Z,15.24
2023-05-23T02:40:57.639Z,15.13
2023-05-23T02:43:26.031Z,15.21
2023-05-23T02:45:54.445Z,15.21
2023-05-23T02:48:24.160Z,15.18
2023-05-23T02:50:58.238Z,15.23
2023-05-23T02:53:26.917Z,15.14
2023-05-23T02:55:55.169Z,15.12
2023-05-23T02:58:24.089Z,15.18
2023-05-23T03:00:52.952Z,15.13
2023-05-23T03:03:22.160Z,15.06
2023-05-23T03:06:00.624Z,14.99
2023-05-23T03:08:29.246Z,14.98
2023-05-23T03:10:57.758Z,14.98
2023-05-23T03:13:26.491Z,14.89
2023-05-23T03:16:00.496Z,14.93
2023-05-23T03:18:29.193Z,14.91
2023-05-23T03:20:57.800Z,14.86
2023-05-23T03:23:27.581Z,14.86
2023-05-23T03:25:56.153Z,14.88
2023-05-23T03:28:24.741Z,14.85
2023-05-23T03:30:53.604Z,14.76
2023-05-23T03:33:22.472Z,14.74
2023-05-23T03:35:51.536Z,14.76
2023-05-23T03:38:20.176Z,14.65
2023-05-23T03:40:50.123Z,14.66
2023-05-23T03:43:18.740Z,14.64
2023-05-23T03:45:47.565Z,14.62
2023-05-23T03:48:16.102Z,14.55
2023-05-23T03:50:44.658Z,14.55
2023-05-23T03:53:13.496Z,14.57
2023-05-23T03:55:42.314Z,14.59
2023-05-23T03:58:12.574Z,14.60
2023-05-23T04:00:41.198Z,14.54
2023-05-23T04:03:10.894Z,14.48
2023-05-23T04:05:39.786Z,14.53
2023-05-23T04:08:08.816Z,14.56
2023-05-23T04:10:37.488Z,14.62
2023-05-23T04:13:06.677Z,14.57
2023-05-23T04:15:36.574Z,14.46
2023-05-23T04:18:05.356Z,14.41
2023-05-23T04:20:34.148Z,14.49
2023-05-23T04:23:02.792Z,14.59
2023-05-23T04:25:31.456Z,14.59
2023-05-23T04:27:59.867Z,14.63
2023-05-23T04:30:30.470Z,14.66
2023-05-23T04:33:00.977Z,14.63
2023-05-23T04:35:43.872Z,14.56
2023-05-23T04:38:15.235Z,14.62
2023-05-23T04:40:43.676Z,14.60
2023-05-23T04:43:14.507Z,14.56
2023-05-23T04:45:44.048Z,14.64
2023-05-23T04:48:17.160Z,14.60
2023-05-23T04:50:48.798Z,14.60
2023-05-23T04:53:17.623Z,14.67
2023-05-23T04:55:46.534Z,14.66
2023-05-23T04:58:15.649Z,14.75
2023-05-23T05:00:44.901Z,14.69
2023-05-23T05:03:14.792Z,14.69
2023-05-23T05:05:43.175Z,14.73
2023-05-23T05:08:11.575Z,14.78
2023-05-23T05:10:41.766Z,14.72
2023-05-23T05:13:10.410Z,14.66
2023-05-23T05:15:38.707Z,14.66
2023-05-23T05:18:07.365Z,14.54
2023-05-23T05:20:37.306Z,14.46
2023-05-23T05:23:05.671Z,14.42
2023-05-23T05:25:36.159Z,14.45
2023-05-23T05:28:06.136Z,14.41
2023-05-23T05:30:35.333Z,14.35
2023-05-23T05:33:04.372Z,14.49
2023-05-23T05:35:32.887Z,14.61
2023-05-23T05:38:02.632Z,14.72
2023-05-23T05:40:30.911Z,14.70
2023-05-23T05:42:59.510Z,14.72
2023-05-23T05:45:28.442Z,14.77
2023-05-23T05:47:56.813Z,14.79
2023-05-23T05:50:25.416Z,14.71
2023-05-23T05:53:09.659Z,14.70
2023-05-23T05:55:38.406Z,14.81
2023-05-23T05:58:07.171Z,14.68
2023-05-23T06:00:42.133Z,14.63
2023-05-23T06:03:11.122Z,14.63
2023-05-23T06:05:42.323Z,14.69
2023-05-23T06:08:21.589Z,14.75
2023-05-23T06:10:50.121Z,14.72
2023-05-23T06:13:18.639Z,14.74
2023-05-23T06:15:47.184Z,14.76
2023-05-23T06:18:16.319Z,14.76
2023-05-23T06:20:44.732Z,14.76
2023-05-23T06:23:14.192Z,14.72
2023-05-23T06:25:44.063Z,14.68
2023-05-23T06:28:12.378Z,14.72
2023-05-23T06:30:41.104Z,14.68
2023-05-23T06:33:09.736Z,14.75
2023-05-23T06:35:38.393Z,14.75
2023-05-23T06:38:12.835Z,14.74
2023-05-23T06:40:41.686Z,14.80
2023-05-23T06:43:16.497Z,14.71
2023-05-23T06:45:46.843Z,14.69
2023-05-23T06:48:15.132Z,14.66
2023-05-23T06:50:43.607Z,14.70
2023-05-23T06:53:12.085Z,14.62
2023-05-23T06:55:40.387Z,14.59
2023-05-23T06:58:09.024Z,14.67
2023-05-23T07:00:39.353Z,14.82
2023-05-23T07:03:08.082Z,14.91
2023-05-23T07:05:40.091Z,14.87
2023-05-23T07:08:10.812Z,15.24
2023-05-23T07:10:41.691Z,15.32
2023-05-23T07:13:10.486Z,15.20
2023-05-23T07:15:40.241Z,15.33
2023-05-23T07:18:08.845Z,15.34
2023-05-23T07:20:38.374Z,15.30
2023-05-23T07:23:06.686Z,15.20
2023-05-23T07:25:35.097Z,15.11
2023-05-23T07:28:03.367Z,14.95
2023-05-23T07:30:33.252Z,14.92
2023-05-23T07:33:07.785Z,14.80
2023-05-23T07:35:36.116Z,14.78
2023-05-23T07:38:05.341Z,14.90
2023-05-23T07:40:33.680Z,15.01
2023-05-23T07:43:01.990Z,15.05
2023-05-23T07:45:30.435Z,15.25
2023-05-23T07:47:58.812Z,15.44
2023-05-23T07:50:28.559Z,15.34
2023-05-23T07:52:56.876Z,15.45
2023-05-23T07:55:25.552Z,15.43
2023-05-23T07:57:54.989Z,15.44
2023-05-23T08:00:23.421Z,15.48
2023-05-23T08:02:52.301Z,15.62
2023-05-23T08:05:22.827Z,15.89
2023-05-23T08:07:54.338Z,16.08
2023-05-23T08:10:22.837Z,15.94
2023-05-23T08:12:51.305Z,16.02
2023-05-23T08:15:19.849Z,15.91
2023-05-23T08:17:48.436Z,15.71
2023-05-23T08:20:16.970Z,15.46
2023-05-23T08:22:45.541Z,15.37
2023-05-23T08:25:15.220Z,15.39
2023-05-23T08:27:43.527Z,15.23
2023-05-23T08:30:12.632Z,14.99
2023-05-23T08:32:41.054Z,14.91
2023-05-23T08:35:09.636Z,14.92
2023-05-23T08:37:38.144Z,14.88
2023-05-23T08:40:08.869Z,14.91
2023-05-23T08:42:38.816Z,14.77
2023-05-23T08:45:07.808Z,14.78
2023-05-23T08:47:38.656Z,14.79
2023-05-23T08:50:08.145Z,14.75
2023-05-23T08:52:38.878Z,14.66
2023-05-23T08:55:07.943Z,14.68
2023-05-23T08:57:38.025Z,14.82
2023-05-23T09:00:14.759Z,14.96
2023-05-23T09:02:45.086Z,15.20
2023-05-23T09:05:14.035Z,15.43
2023-05-23T09:07:42.770Z,15.46
2023-05-23T09:10:12.263Z,15.51
2023-05-23T09:12:40.667Z,15.57
2023-05-23T09:15:11.549Z,15.26
2023-05-23T09:17:54.760Z,14.94
2023-05-23T09:20:23.131Z,14.88
2023-05-23T09:22:51.530Z,14.96
2023-05-23T09:25:20.076Z,15.52
2023-05-23T09:27:48.538Z,15.71
2023-05-23T09:30:18.658Z,15.77
2023-05-23T09:33:00.201Z,15.71
2023-05-23T09:35:30.764Z,15.50
2023-05-23T09:38:00.207Z,15.58
2023-05-23T09:40:32.948Z,15.38
2023-05-23T09:43:03.569Z,15.67
2023-05-23T09:45:34.151Z,15.56
2023-05-23T09:48:02.747Z,15.58
2023-05-23T09:50:32.359Z,15.38
2023-05-23T09:53:01.423Z,15.10
2023-05-23T09:55:29.812Z,14.91
2023-05-23T09:57:59.675Z,14.63
2023-05-23T10:00:28.615Z,14.55
2023-05-23T10:03:08.095Z,14.60
2023-05-23T10:05:39.124Z,14.70
2023-05-23T10:08:10.677Z,14.72
2023-05-23T10:11:02.672Z,14.81
2023-05-23T10:13:33.067Z,14.80
2023-05-23T10:16:16.595Z,14.64
2023-05-23T10:18:48.426Z,14.49
2023-05-23T10:21:20.988Z,14.58
2023-05-23T10:23:57.336Z,14.76
2023-05-23T10:26:28.377Z,15.14
2023-05-23T10:28:58.386Z,15.91
2023-05-23T10:31:28.146Z,17.12
2023-05-23T10:34:01.950Z,18.12
2023-05-23T10:36:34.658Z,18.47
2023-05-23T10:39:07.851Z,18.30
2023-05-23T10:41:40.044Z,18.33
2023-05-23T10:44:11.638Z,18.13
2023-05-23T10:46:54.020Z,17.87
2023-05-23T10:49:39.141Z,17.41
2023-05-23T10:52:08.295Z,17.62
2023-05-23T10:54:37.051Z,17.72
2023-05-23T10:57:06.268Z,18.00
2023-05-23T10:59:34.666Z,18.15
2023-05-23T11:02:04.548Z,18.33
2023-05-23T11:04:34.905Z,18.54
2023-05-23T11:07:03.280Z,18.35
2023-05-23T11:09:31.597Z,18.14
2023-05-23T11:12:05.468Z,18.24
2023-05-23T11:14:35.738Z,18.12
2023-05-23T11:17:16.449Z,17.77
2023-05-23T11:19:59.859Z,17.39
2023-05-23T11:22:28.807Z,17.15
2023-05-23T11:24:58.114Z,17.23
2023-05-23T11:27:29.890Z,17.42
2023-05-23T11:29:58.993Z,18.06
2023-05-23T11:32:29.088Z,18.97
2023-05-23T11:35:00.001Z,18.85
2023-05-23T11:37:28.597Z,18.80
2023-05-23T11:39:56.945Z,19.37
2023-05-23T11:42:25.244Z,19.93
2023-05-23T11:44:53.895Z,20.14
2023-05-23T11:47:22.412Z,19.86
2023-05-23T11:49:51.285Z,19.49
2023-05-23T11:52:21.171Z,20.97
2023-05-23T11:54:49.624Z,22.47
2023-05-23T11:57:18.110Z,25.45
2023-05-23T11:59:47.245Z,27.00
2023-05-23T12:02:16.087Z,27.47
2023-05-23T12:04:44.542Z,27.99
2023-05-23T12:07:13.096Z,28.60
2023-05-23T12:09:46.577Z,28.76
2023-05-23T12:12:15.279Z,29.38
2023-05-23T12:14:44.766Z,29.50
2023-05-23T12:17:13.974Z,28.96
2023-05-23T12:19:46.804Z,28.27
2023-05-23T12:22:15.189Z,29.87
2023-05-23T12:24:48.016Z,29.53
2023-05-23T12:27:17.463Z,28.95
2023-05-23T12:29:51.111Z,29.95
2023-05-23T12:32:19.639Z,28.32
2023-05-23T12:34:48.164Z,27.08
2023-05-23T12:37:20.519Z,26.59
2023-05-23T12:39:51.037Z,24.77
2023-05-23T12:42:19.453Z,24.53
2023-05-23T12:44:52.909Z,23.93
2023-05-23T12:47:21.989Z,24.10
2023-05-23T12:49:50.553Z,24.86
2023-05-23T12:52:19.183Z,26.47
2023-05-23T12:54:47.678Z,28.81
2023-05-23T12:57:17.410Z,28.49
2023-05-23T12:59:45.986Z,27.81
2023-05-23T13:02:14.232Z,26.33
2023-05-23T13:04:42.600Z,25.36
2023-05-23T13:07:10.884Z,23.97
2023-05-23T13:09:40.000Z,22.86
2023-05-23T13:12:09.282Z,22.24
2023-05-23T13:14:39.028Z,24.13
2023-05-23T13:17:07.495Z,24.33
2023-05-23T13:19:36.443Z,24.27
2023-05-23T13:22:05.930Z,24.35
2023-05-23T13:24:36.332Z,23.50
2023-05-23T13:27:05.444Z,24.04
2023-05-23T13:29:34.018Z,26.35
2023-05-23T13:32:23.623Z,28.61
2023-05-23T13:34:52.114Z,28.16
2023-05-23T13:37:22.762Z,28.26
2023-05-23T13:39:51.012Z,27.90
2023-05-23T13:42:19.381Z,27.25
2023-05-23T13:44:47.628Z,28.17
2023-05-23T13:47:16.686Z,27.47
2023-05-23T13:49:46.960Z,27.30
2023-05-23T13:52:15.302Z,27.74
2023-05-23T13:54:43.704Z,27.86
2023-05-23T13:57:12.117Z,27.86
2023-05-23T13:59:40.510Z,26.52
2023-05-23T14:02:09.010Z,26.21
2023-05-23T14:04:37.361Z,26.39
2023-05-23T14:07:07.185Z,26.18
2023-05-23T14:09:35.593Z,25.74
2023-05-23T14:12:04.099Z,26.86
2023-05-23T14:14:32.393Z,28.04
2023-05-23T14:17:01.172Z,26.30
2023-05-23T14:19:29.781Z,24.99
2023-05-23T14:22:01.899Z,24.18
2023-05-23T14:24:34.759Z,23.63
2023-05-23T14:27:03.713Z,22.87
2023-05-23T14:29:32.051Z,22.47
2023-05-23T14:32:02.979Z,22.50
2023-05-23T14:34:32.165Z,22.17
2023-05-23T14:37:02.016Z,23.02
2023-05-23T14:39:30.526Z,23.36
2023-05-23T14:42:00.474Z,24.04
2023-05-23T14:44:31.257Z,23.84
2023-05-23T14:47:03.318Z,23.61
2023-05-23T14:49:31.699Z,22.86
2023-05-23T14:52:00.171Z,22.40
2023-05-23T14:54:28.472Z,22.25
2023-05-23T14:56:56.843Z,22.30
2023-05-23T14:59:29.024Z,22.30
2023-05-23T15:01:58.359Z,22.09
2023-05-23T15:04:27.329Z,21.68
2023-05-23T15:06:56.261Z,21.53
2023-05-23T15:09:25.132Z,21.46
2023-05-23T15:11:58.227Z,21.46
2023-05-23T15:14:29.572Z,21.75
2023-05-23T15:16:59.219Z,21.80
2023-05-23T15:19:27.534Z,21.59
2023-05-23T15:21:56.014Z,20.97
2023-05-23T15:24:24.862Z,20.37
2023-05-23T15:26:53.415Z,20.07
2023-05-23T15:29:23.878Z,19.76
2023-05-23T15:31:54.774Z,19.45
2023-05-23T15:34:23.638Z,19.33
2023-05-23T15:36:53.475Z,19.16
2023-05-23T15:39:22.455Z,19.24
2023-05-23T15:41:58.232Z,19.22
2023-05-23T15:44:26.766Z,19.26
2023-05-23T15:46:56.905Z,19.06
2023-05-23T15:49:26.877Z,19.06
2023-05-23T15:51:55.893Z,19.16
2023-05-23T15:54:24.729Z,19.50
2023-05-23T15:56:53.232Z,19.67
2023-05-23T15:59:27.102Z,19.97
2023-05-23T16:01:57.110Z,19.70
2023-05-23T16:04:27.255Z,19.43
2023-05-23T16:06:55.946Z,19.27
2023-05-23T16:09:24.503Z,19.64
2023-05-23T16:11:54.041Z,20.03
2023-05-23T16:14:23.229Z,20.17
2023-05-23T16:16:52.272Z,20.28
2023-05-23T16:19:22.563Z,20.36
2023-05-23T16:21:51.111Z,20.18
2023-05-23T16:24:19.535Z,20.13
2023-05-23T16:26:48.169Z,19.90
2023-05-23T16:29:16.913Z,19.53
2023-05-23T16:31:46.040Z,19.25
2023-05-23T16:34:18.171Z,19.16
2023-05-23T16:36:47.945Z,19.33
2023-05-23T16:39:16.487Z,19.22
2023-05-23T16:41:45.036Z,19.02
2023-05-23T16:44:20.130Z,18.95
2023-05-23T16:46:49.287Z,19.01
2023-05-23T16:49:18.202Z,18.42
2023-05-23T16:51:49.908Z,18.67
2023-05-23T16:54:19.514Z,18.50
2023-05-23T16:56:48.270Z,18.32
2023-05-23T16:59:21.887Z,18.02
2023-05-23T17:01:51.578Z,17.94
2023-05-23T17:04:20.797Z,17.91
2023-05-23T17:06:51.821Z,17.72
2023-05-23T17:09:22.276Z,17.44
2023-05-23T17:11:55.097Z,17.27
2023-05-23T17:14:23.511Z,17.17
2023-05-23T17:16:52.558Z,16.94
2023-05-23T17:19:21.621Z,16.72
2023-05-23T17:21:52.024Z,16.70
2023-05-23T17:24:20.862Z,16.73
2023-05-23T17:26:52.218Z,16.67
2023-05-23T17:29:21.191Z,16.55
2023-05-23T17:31:51.515Z,16.41
2023-05-23T17:34:20.023Z,16.15
2023-05-23T17:36:48.834Z,16.02
2023-05-23T17:39:24.821Z,15.92
2023-05-23T17:41:53.761Z,15.74
2023-05-23T17:44:22.636Z,15.64
2023-05-23T17:46:51.367Z,15.68
2023-05-23T17:49:19.821Z,15.60
2023-05-23T17:51:48.430Z,15.62
2023-05-23T17:54:16.818Z,15.59
2023-05-23T17:56:46.776Z,15.56
2023-05-23T17:59:16.629Z,15.48
2023-05-23T18:01:44.918Z,15.38
2023-05-23T18:04:13.597Z,15.38
2023-05-23T18:06:42.469Z,15.26
2023-05-23T18:09:11.810Z,15.22
2023-05-23T18:11:40.066Z,15.24
2023-05-23T18:14:10.599Z,15.12
2023-05-23T18:16:39.354Z,15.03
2023-05-23T18:19:08.262Z,14.89
2023-05-23T18:21:36.888Z,14.79
2023-05-23T18:24:06.251Z,14.75
2023-05-23T18:26:34.778Z,14.64
2023-05-23T18:29:04.538Z,14.57
2023-05-23T18:31:34.485Z,14.46
2023-05-23T18:34:02.842Z,14.30
2023-05-23T18:36:34.102Z,14.23
2023-05-23T18:39:05.460Z,14.15
2023-05-23T18:41:33.918Z,14.09
2023-05-23T18:44:02.566Z,13.97
2023-05-23T18:46:30.927Z,13.87
2023-05-23T18:49:02.217Z,13.80
2023-05-23T18:51:32.435Z,13.69
2023-05-23T18:54:02.976Z,13.63
2023-05-23T18:56:34.978Z,13.45
2023-05-23T18:59:03.803Z,13.42
2023-05-23T19:01:32.416Z,13.33
2023-05-23T19:04:05.025Z,13.21
2023-05-23T19:06:33.503Z,13.09
2023-05-23T19:09:01.902Z,13.06
2023-05-23T19:11:30.449Z,13.07
2023-05-23T19:13:58.658Z,13.02
2023-05-23T19:16:27.612Z,12.94
2023-05-23T19:18:56.032Z,12.81
2023-05-23T19:21:25.712Z,12.65
2023-05-23T19:23:54.040Z,12.68
2023-05-23T19:26:22.275Z,12.56
2023-05-23T19:28:53.867Z,12.39
2023-05-23T19:31:22.384Z,12.30
2023-05-23T19:33:51.142Z,12.18
2023-05-23T19:36:19.797Z,12.19
2023-05-23T19:38:50.069Z,12.06
2023-05-23T19:41:20.260Z,11.96
2023-05-23T19:43:49.131Z,12.06
2023-05-23T19:46:18.465Z,11.94
2023-05-23T19:48:46.966Z,11.86
2023-05-23T19:51:16.063Z,11.80
2023-05-23T19:53:44.355Z,11.76
2023-05-23T19:56:14.237Z,11.62
2023-05-23T19:58:42.900Z,11.61
2023-05-23T20:01:11.502Z,11.61
2023-05-23T20:03:39.959Z,11.50
2023-05-23T20:06:08.308Z,11.38
2023-05-23T20:08:36.663Z,11.27
2023-05-23T20:11:05.465Z,11.29
2023-05-23T20:13:35.333Z,11.33
2023-05-23T20:16:03.977Z,11.23
2023-05-23T20:18:32.289Z,11.27
2023-05-23T20:21:02.889Z,11.22
2023-05-23T20:23:32.892Z,11.06
2023-05-23T20:26:01.890Z,11.14
2023-05-23T20:28:36.250Z,10.98
2023-05-23T20:31:04.935Z,10.87
2023-05-23T20:33:34.398Z,10.90
2023-05-23T20:36:03.620Z,10.89
2023-05-23T20:38:34.251Z,10.75
2023-05-23T20:41:06.353Z,10.76
2023-05-23T20:43:37.453Z,10.64
2023-05-23T20:46:07.182Z,10.56
2023-05-23T20:48:36.010Z,10.56
2023-05-23T20:51:06.478Z,10.42
2023-05-23T20:53:35.058Z,10.40
2023-05-23T20:56:08.270Z,10.36
2023-05-23T20:58:38.178Z,10.24
2023-05-23T21:01:08.085Z,10.32
2023-05-23T21:03:36.924Z,10.15
2023-05-23T21:06:06.119Z,10.17
2023-05-23T21:08:34.950Z,10.05
2023-05-23T21:11:03.786Z,10.07
2023-05-23T21:13:32.113Z,9.97
2023-05-23T21:16:02.175Z,9.93
2023-05-23T21:18:30.917Z,9.92
2023-05-23T21:20:59.180Z,9.91
2023-05-23T21:23:27.902Z,9.88
2023-05-23T21:25:56.941Z,9.76
2023-05-23T21:28:25.490Z,9.75
2023-05-23T21:30:54.160Z,9.66
2023-05-23T21:33:24.253Z,9.66
2023-05-23T21:35:52.985Z,9.55
2023-05-23T21:38:21.457Z,9.56
2023-05-23T21:40:49.993Z,9.48
2023-05-23T21:43:18.929Z,9.44
2023-05-23T21:45:47.229Z,9.42
2023-05-23T21:48:15.722Z,9.37
2023-05-23T21:50:45.480Z,9.19
2023-05-23T21:53:14.477Z,9.21
2023-05-23T21:55:42.819Z,9.08
2023-05-23T21:58:11.656Z,9.02
2023-05-23T22:00:45.621Z,9.01
2023-05-23T22:03:14.634Z,8.93
2023-05-23T22:05:45.585Z,8.78
2023-05-23T22:08:16.296Z,8.72
2023-05-23T22:10:44.702Z,8.75
2023-05-23T22:13:17.548Z,8.68
2023-05-23T22:16:00.668Z,8.72
2023-05-23T22:18:34.594Z,8.59
2023-05-23T22:21:12.159Z,8.48
2023-05-23T22:23:43.519Z,8.47
2023-05-23T22:26:13.106Z,8.44
2023-05-23T22:28:41.379Z,8.41
2023-05-23T22:31:12.109Z,8.45
2023-05-23T22:33:45.261Z,8.32
2023-05-23T22:36:17.727Z,8.30
2023-05-23T22:38:50.105Z,8.26
2023-05-23T22:41:18.586Z,8.27
2023-05-23T22:43:50.892Z,8.14
2023-05-23T22:46:19.974Z,8.26
2023-05-23T22:48:49.463Z,8.24
2023-05-23T22:51:19.720Z,8.17
2023-05-23T22:53:48.031Z,8.12
2023-05-23T22:56:17.774Z,8.15
2023-05-23T22:58:46.081Z,8.11
2023-05-23T23:01:14.675Z,8.07
2023-05-23T23:03:43.744Z,8.06
2023-05-23T23:06:12.213Z,8.02
2023-05-23T23:08:42.333Z,8.02
2023-05-23T23:11:10.885Z,7.98
2023-05-23T23:13:40.725Z,8.14
2023-05-23T23:16:12.037Z,7.93
2023-05-23T23:18:40.283Z,7.93
2023-05-23T23:21:08.499Z,7.94
2023-05-23T23:23:38.329Z,7.87
2023-05-23T23:26:06.651Z,7.80
2023-05-23T23:28:35.130Z,7.70
2023-05-23T23:31:04.832Z,7.64
2023-05-23T23:33:33.153Z,7.53
2023-05-23T23:36:02.054Z,7.44
2023-05-23T23:38:30.444Z,7.56
2023-05-23T23:40:59.167Z,7.45
2023-05-23T23:43:27.474Z,7.44
2023-05-23T23:45:56.082Z,7.58
2023-05-23T23:48:25.727Z,7.51
2023-05-23T23:50:54.139Z,7.44
2023-05-23T23:53:22.507Z,7.39
2023-05-23T23:55:50.994Z,7.29
2023-05-23T23:58:19.236Z,7.20
